sensor_id;sensor_type;location;lat;lon;timestamp;pressure;altitude;pressure_sealevel;temperature;humidity
61205;BME280;47068;55.780;37.520;2023-06-10T00:00:00;100278.13;;;13.70;50.37
61205;BME280;47068;55.780;37.520;2023-06-10T00:02:26;100289.03;;;13.68;50.32
61205;BME280;47068;55.780;37.520;2023-06-10T00:04:52;100287.66;;;13.72;50.89
61205;BME280;47068;55.780;37.520;2023-06-10T00:07:18;100280.97;;;13.76;50.74
61205;BME280;47068;55.780;37.520;2023-06-10T00:09:43;100281.63;;;13.78;50.21
61205;BME280;47068;55.780;37.520;2023-06-10T00:12:09;100283.69;;;13.52;50.47
61205;BME280;47068;55.780;37.520;2023-06-10T00:14:37;100274.81;;;13.11;51.90
61205;BME280;47068;55.780;37.520;2023-06-10T00:17:03;100288.03;;;13.13;51.95
61205;BME280;47068;55.780;37.520;2023-06-10T00:19:29;100270.44;;;13.02;51.96
61205;BME280;47068;55.780;37.520;2023-06-10T00:21:58;100294.53;;;13.18;51.76
61205;BME280;47068;55.780;37.520;2023-06-10T00:24:24;100299.53;;;13.21;51.85
61205;BME280;47068;55.780;37.520;2023-06-10T00:26:49;100300.75;;;13.27;52.04
61205;BME280;47068;55.780;37.520;2023-06-10T00:29:15;100296.22;;;13.27;52.10
61205;BME280;47068;55.780;37.520;2023-06-10T00:31:41;100302.06;;;13.39;52.43
61205;BME280;47068;55.780;37.520;2023-06-10T00:34:08;100307.72;;;13.36;52.04
61205;BME280;47068;55.780;37.520;2023-06-10T00:36:33;100305.91;;;13.20;52.46
61205;BME280;47068;55.780;37.520;2023-06-10T00:39:00;100245.38;;;12.87;52.63
61205;BME280;47068;55.780;37.520;2023-06-10T00:41:26;100307.72;;;13.28;52.73
61205;BME280;47068;55.780;37.520;2023-06-10T00:43:52;100318.94;;;13.31;52.54
61205;BME280;47068;55.780;37.520;2023-06-10T00:46:17;100332.78;;;13.43;52.45
61205;BME280;47068;55.780;37.520;2023-06-10T00:48:44;100338.00;;;13.53;52.30
61205;BME280;47068;55.780;37.520;2023-06-10T00:51:10;100335.81;;;13.48;51.54
61205;BME280;47068;55.780;37.520;2023-06-10T00:53:39;100336.66;;;13.32;52.61
61205;BME280;47068;55.780;37.520;2023-06-10T00:56:05;100335.94;;;13.22;52.89
61205;BME280;47068;55.780;37.520;2023-06-10T00:58:31;100344.34;;;13.27;53.17
61205;BME280;47068;55.780;37.520;2023-06-10T01:00:56;100349.81;;;13.18;53.46
61205;BME280;47068;55.780;37.520;2023-06-10T01:03:23;100336.69;;;12.82;53.53
61205;BME280;47068;55.780;37.520;2023-06-10T01:05:50;100351.88;;;12.82;54.15
61205;BME280;47068;55.780;37.520;2023-06-10T01:08:28;100354.06;;;12.94;53.63
61205;BME280;47068;55.780;37.520;2023-06-10T01:11:00;100357.44;;;13.05;53.72
61205;BME280;47068;55.780;37.520;2023-06-10T01:13:27;100361.13;;;13.12;53.33
61205;BME280;47068;55.780;37.520;2023-06-10T01:15:58;100358.16;;;13.23;53.91
61205;BME280;47068;55.780;37.520;2023-06-10T01:18:29;100365.50;;;13.21;53.63
61205;BME280;47068;55.780;37.520;2023-06-10T01:20:55;100366.59;;;13.02;54.37
61205;BME280;47068;55.780;37.520;2023-06-10T01:23:21;100361.09;;;13.03;54.12
61205;BME280;47068;55.780;37.520;2023-06-10T01:26:03;100373.53;;;13.13;54.47
61205;BME280;47068;55.780;37.520;2023-06-10T01:34:00;100379.38;;;13.24;54.06
61205;BME280;47068;55.780;37.520;2023-06-10T01:36:26;100378.72;;;13.22;54.38
61205;BME280;47068;55.780;37.520;2023-06-10T01:38:53;100386.56;;;13.24;54.37
61205;BME280;47068;55.780;37.520;2023-06-10T01:41:19;100395.28;;;13.34;54.43
61205;BME280;47068;55.780;37.520;2023-06-10T01:43:46;100383.94;;;13.40;54.27
61205;BME280;47068;55.780;37.520;2023-06-10T01:46:12;100375.53;;;13.35;54.28
61205;BME280;47068;55.780;37.520;2023-06-10T01:48:37;100383.41;;;13.36;54.69
61205;BME280;47068;55.780;37.520;2023-06-10T01:51:03;100387.59;;;13.39;54.64
61205;BME280;47068;55.780;37.520;2023-06-10T01:53:29;100399.78;;;13.41;54.77
61205;BME280;47068;55.780;37.520;2023-06-10T01:55:54;100401.66;;;13.41;54.89
61205;BME280;47068;55.780;37.520;2023-06-10T01:58:20;100408.00;;;13.40;55.32
61205;BME280;47068;55.780;37.520;2023-06-10T02:00:45;100406.97;;;13.33;54.77
61205;BME280;47068;55.780;37.520;2023-06-10T02:03:11;100406.09;;;13.24;55.24
61205;BME280;47068;55.780;37.520;2023-06-10T02:05:36;100406.78;;;13.26;55.25
61205;BME280;47068;55.780;37.520;2023-06-10T02:08:02;100404.94;;;13.19;55.59
61205;BME280;47068;55.780;37.520;2023-06-10T02:10:27;100414.63;;;13.20;54.92
61205;BME280;47068;55.780;37.520;2023-06-10T02:12:53;100416.94;;;13.15;55.89
61205;BME280;47068;55.780;37.520;2023-06-10T02:15:18;100422.03;;;13.00;55.42
61205;BME280;47068;55.780;37.520;2023-06-10T02:17:44;100419.47;;;12.82;56.33
61205;BME280;47068;55.780;37.520;2023-06-10T02:20:10;100425.81;;;12.81;56.42
61205;BME280;47068;55.780;37.520;2023-06-10T02:22:37;100418.28;;;12.77;56.36
61205;BME280;47068;55.780;37.520;2023-06-10T02:25:03;100411.31;;;12.50;56.98
61205;BME280;47068;55.780;37.520;2023-06-10T02:27:29;100421.66;;;12.53;56.62
61205;BME280;47068;55.780;37.520;2023-06-10T02:29:56;100422.63;;;12.44;57.18
61205;BME280;47068;55.780;37.520;2023-06-10T02:32:21;100420.53;;;12.30;57.65
61205;BME280;47068;55.780;37.520;2023-06-10T02:34:47;100428.56;;;12.38;57.65
61205;BME280;47068;55.780;37.520;2023-06-10T02:37:14;100414.22;;;12.31;57.85
61205;BME280;47068;55.780;37.520;2023-06-10T02:39:40;100421.16;;;12.23;57.36
61205;BME280;47068;55.780;37.520;2023-06-10T02:42:06;100425.59;;;12.15;57.39
61205;BME280;47068;55.780;37.520;2023-06-10T02:44:31;100431.44;;;12.18;56.56
61205;BME280;47068;55.780;37.520;2023-06-10T02:46:57;100441.19;;;12.02;57.46
61205;BME280;47068;55.780;37.520;2023-06-10T02:49:23;100436.97;;;11.99;57.46
61205;BME280;47068;55.780;37.520;2023-06-10T02:51:50;100436.06;;;11.91;57.44
61205;BME280;47068;55.780;37.520;2023-06-10T02:54:19;100438.13;;;11.97;57.45
61205;BME280;47068;55.780;37.520;2023-06-10T02:56:45;100436.69;;;12.02;56.31
61205;BME280;47068;55.780;37.520;2023-06-10T02:59:11;100443.22;;;12.08;56.19
61205;BME280;47068;55.780;37.520;2023-06-10T03:01:36;100444.22;;;12.07;56.04
61205;BME280;47068;55.780;37.520;2023-06-10T03:04:04;100437.34;;;12.04;55.95
61205;BME280;47068;55.780;37.520;2023-06-10T03:06:30;100440.78;;;12.14;55.59
61205;BME280;47068;55.780;37.520;2023-06-10T03:08:55;100445.63;;;12.19;55.49
61205;BME280;47068;55.780;37.520;2023-06-10T03:11:21;100445.91;;;12.34;54.67
61205;BME280;47068;55.780;37.520;2023-06-10T03:13:46;100445.59;;;12.37;54.54
61205;BME280;47068;55.780;37.520;2023-06-10T03:16:12;100413.03;;;12.07;54.57
61205;BME280;47068;55.780;37.520;2023-06-10T03:18:37;100446.03;;;12.32;55.15
61205;BME280;47068;55.780;37.520;2023-06-10T03:21:03;100455.53;;;12.27;54.14
61205;BME280;47068;55.780;37.520;2023-06-10T03:23:29;100442.44;;;12.15;54.92
61205;BME280;47068;55.780;37.520;2023-06-10T03:25:54;100450.88;;;12.29;55.23
61205;BME280;47068;55.780;37.520;2023-06-10T03:28:20;100453.53;;;12.29;54.40
61205;BME280;47068;55.780;37.520;2023-06-10T03:30:46;100452.78;;;12.18;54.87
61205;BME280;47068;55.780;37.520;2023-06-10T03:33:12;100457.00;;;12.21;54.68
61205;BME280;47068;55.780;37.520;2023-06-10T03:35:38;100458.41;;;12.33;55.15
61205;BME280;47068;55.780;37.520;2023-06-10T03:38:03;100457.31;;;12.44;54.38
61205;BME280;47068;55.780;37.520;2023-06-10T03:40:29;100464.06;;;12.56;54.34
61205;BME280;47068;55.780;37.520;2023-06-10T03:42:56;100440.19;;;12.54;54.29
61205;BME280;47068;55.780;37.520;2023-06-10T03:45:21;100468.16;;;12.76;53.96
61205;BME280;47068;55.780;37.520;2023-06-10T03:47:47;100460.88;;;12.86;52.96
61205;BME280;47068;55.780;37.520;2023-06-10T03:50:13;100462.09;;;12.66;52.79
61205;BME280;47068;55.780;37.520;2023-06-10T03:52:38;100472.81;;;12.74;53.14
61205;BME280;47068;55.780;37.520;2023-06-10T03:55:05;100470.88;;;12.84;53.26
61205;BME280;47068;55.780;37.520;2023-06-10T03:57:30;100443.31;;;12.76;52.07
61205;BME280;47068;55.780;37.520;2023-06-10T03:59:56;100452.19;;;12.84;51.97
61205;BME280;47068;55.780;37.520;2023-06-10T04:02:22;100468.31;;;13.09;52.15
61205;BME280;47068;55.780;37.520;2023-06-10T04:04:48;100470.63;;;13.03;51.67
61205;BME280;47068;55.780;37.520;2023-06-10T04:07:13;100461.44;;;12.98;52.09
61205;BME280;47068;55.780;37.520;2023-06-10T04:09:39;100474.06;;;13.14;50.59
61205;BME280;47068;55.780;37.520;2023-06-10T04:12:05;100471.88;;;13.17;51.63
61205;BME280;47068;55.780;37.520;2023-06-10T04:14:36;100478.81;;;13.44;50.85
61205;BME280;47068;55.780;37.520;2023-06-10T04:17:04;100477.88;;;13.61;48.95
61205;BME280;47068;55.780;37.520;2023-06-10T04:19:32;100480.84;;;13.58;48.91
61205;BME280;47068;55.780;37.520;2023-06-10T04:21:58;100478.19;;;13.58;49.27
61205;BME280;47068;55.780;37.520;2023-06-10T04:24:23;100482.56;;;13.67;49.30
61205;BME280;47068;55.780;37.520;2023-06-10T04:26:49;100481.25;;;13.88;47.31
61205;BME280;47068;55.780;37.520;2023-06-10T04:29:14;100483.44;;;14.16;48.08
61205;BME280;47068;55.780;37.520;2023-06-10T04:31:40;100473.56;;;14.17;47.00
61205;BME280;47068;55.780;37.520;2023-06-10T04:34:06;100467.19;;;14.58;45.32
61205;BME280;47068;55.780;37.520;2023-06-10T04:36:32;100463.38;;;15.00;44.58
61205;BME280;47068;55.780;37.520;2023-06-10T04:38:57;100476.03;;;15.53;43.24
61205;BME280;47068;55.780;37.520;2023-06-10T04:41:23;100481.13;;;15.63;42.54
61205;BME280;47068;55.780;37.520;2023-06-10T04:43:48;100477.00;;;15.83;42.25
61205;BME280;47068;55.780;37.520;2023-06-10T04:46:14;100465.91;;;15.24;42.95
61205;BME280;47068;55.780;37.520;2023-06-10T04:48:39;100492.66;;;15.41;43.22
61205;BME280;47068;55.780;37.520;2023-06-10T04:51:07;100483.31;;;15.28;42.43
61205;BME280;47068;55.780;37.520;2023-06-10T04:53:32;100487.75;;;15.44;42.52
61205;BME280;47068;55.780;37.520;2023-06-10T04:55:58;100486.56;;;15.77;42.19
61205;BME280;47068;55.780;37.520;2023-06-10T04:58:23;100492.38;;;15.89;42.03
61205;BME280;47068;55.780;37.520;2023-06-10T05:00:49;100485.94;;;16.36;41.47
61205;BME280;47068;55.780;37.520;2023-06-10T05:03:14;100485.16;;;17.23;40.27
61205;BME280;47068;55.780;37.520;2023-06-10T05:05:40;100491.00;;;18.20;38.67
61205;BME280;47068;55.780;37.520;2023-06-10T05:08:06;100487.50;;;18.47;37.27
61205;BME280;47068;55.780;37.520;2023-06-10T05:10:31;100493.88;;;18.68;37.25
61205;BME280;47068;55.780;37.520;2023-06-10T05:12:57;100498.81;;;18.36;36.86
61205;BME280;47068;55.780;37.520;2023-06-10T05:15:23;100503.06;;;18.03;36.81
61205;BME280;47068;55.780;37.520;2023-06-10T05:17:49;100498.19;;;17.20;38.06
61205;BME280;47068;55.780;37.520;2023-06-10T05:20:15;100505.28;;;17.42;38.34
61205;BME280;47068;55.780;37.520;2023-06-10T05:22:41;100496.59;;;17.11;38.11
61205;BME280;47068;55.780;37.520;2023-06-10T05:25:07;100500.03;;;17.19;39.04
61205;BME280;47068;55.780;37.520;2023-06-10T05:27:33;100505.00;;;17.37;38.71
61205;BME280;47068;55.780;37.520;2023-06-10T05:29:58;100499.94;;;17.63;37.87
61205;BME280;47068;55.780;37.520;2023-06-10T05:32:24;100493.63;;;17.92;37.60
61205;BME280;47068;55.780;37.520;2023-06-10T05:34:50;100507.28;;;18.33;37.49
61205;BME280;47068;55.780;37.520;2023-06-10T05:37:15;100502.69;;;18.83;36.26
61205;BME280;47068;55.780;37.520;2023-06-10T05:39:40;100508.84;;;19.46;35.09
61205;BME280;47068;55.780;37.520;2023-06-10T05:42:07;100496.13;;;20.00;33.47
61205;BME280;47068;55.780;37.520;2023-06-10T05:44:33;100512.81;;;20.43;32.68
61205;BME280;47068;55.780;37.520;2023-06-10T05:46:58;100499.81;;;21.18;32.30
61205;BME280;47068;55.780;37.520;2023-06-10T05:49:24;100510.47;;;22.02;31.48
61205;BME280;47068;55.780;37.520;2023-06-10T05:51:49;100497.34;;;23.16;30.23
61205;BME280;47068;55.780;37.520;2023-06-10T05:54:15;100511.22;;;23.63;28.04
61205;BME280;47068;55.780;37.520;2023-06-10T05:56:40;100507.41;;;21.47;31.11
61205;BME280;47068;55.780;37.520;2023-06-10T05:59:05;100512.38;;;20.20;32.83
61205;BME280;47068;55.780;37.520;2023-06-10T06:01:31;100495.72;;;19.97;34.04
61205;BME280;47068;55.780;37.520;2023-06-10T06:03:56;100511.16;;;20.42;33.40
61205;BME280;47068;55.780;37.520;2023-06-10T06:06:22;100493.28;;;20.74;33.08
61205;BME280;47068;55.780;37.520;2023-06-10T06:08:48;100492.47;;;21.38;32.39
61205;BME280;47068;55.780;37.520;2023-06-10T06:11:13;100507.59;;;21.52;31.57
61205;BME280;47068;55.780;37.520;2023-06-10T06:13:39;100510.13;;;21.47;32.26
61205;BME280;47068;55.780;37.520;2023-06-10T06:16:04;100514.00;;;21.65;31.17
61205;BME280;47068;55.780;37.520;2023-06-10T06:18:29;100516.81;;;21.38;31.29
61205;BME280;47068;55.780;37.520;2023-06-10T06:20:55;100489.19;;;21.68;30.64
61205;BME280;47068;55.780;37.520;2023-06-10T06:23:20;100514.34;;;22.19;29.88
61205;BME280;47068;55.780;37.520;2023-06-10T06:25:46;100519.88;;;21.93;30.43
61205;BME280;47068;55.780;37.520;2023-06-10T06:28:11;100527.69;;;19.93;33.20
61205;BME280;47068;55.780;37.520;2023-06-10T06:30:37;100526.66;;;21.26;31.83
61205;BME280;47068;55.780;37.520;2023-06-10T06:33:02;100510.88;;;21.68;31.39
61205;BME280;47068;55.780;37.520;2023-06-10T06:35:30;100521.22;;;22.15;30.65
61205;BME280;47068;55.780;37.520;2023-06-10T06:37:55;100524.56;;;22.67;29.77
61205;BME280;47068;55.780;37.520;2023-06-10T06:40:21;100525.97;;;22.51;29.13
61205;BME280;47068;55.780;37.520;2023-06-10T06:42:47;100524.38;;;24.08;27.99
61205;BME280;47068;55.780;37.520;2023-06-10T06:45:12;100531.31;;;26.85;24.90
61205;BME280;47068;55.780;37.520;2023-06-10T06:47:38;100526.69;;;27.90;21.25
61205;BME280;47068;55.780;37.520;2023-06-10T06:50:03;100520.91;;;27.86;22.13
61205;BME280;47068;55.780;37.520;2023-06-10T06:52:29;100533.47;;;27.00;22.54
61205;BME280;47068;55.780;37.520;2023-06-10T06:54:54;100522.88;;;28.81;21.55
61205;BME280;47068;55.780;37.520;2023-06-10T06:57:20;100520.47;;;28.90;21.42
61205;BME280;47068;55.780;37.520;2023-06-10T06:59:46;100538.78;;;26.73;23.27
61205;BME280;47068;55.780;37.520;2023-06-10T07:02:12;100534.75;;;25.45;24.10
61205;BME280;47068;55.780;37.520;2023-06-10T07:04:37;100481.91;;;24.48;25.84
61205;BME280;47068;55.780;37.520;2023-06-10T07:07:06;100516.00;;;23.49;27.56
61205;BME280;47068;55.780;37.520;2023-06-10T07:09:32;100514.06;;;23.68;26.96
61205;BME280;47068;55.780;37.520;2023-06-10T07:11:57;100543.84;;;22.59;28.15
61205;BME280;47068;55.780;37.520;2023-06-10T07:14:23;100537.00;;;21.49;29.51
61205;BME280;47068;55.780;37.520;2023-06-10T07:16:48;100546.09;;;20.77;30.92
61205;BME280;47068;55.780;37.520;2023-06-10T07:19:14;100548.09;;;20.02;30.79
61205;BME280;47068;55.780;37.520;2023-06-10T07:21:40;100543.25;;;19.37;32.95
61205;BME280;47068;55.780;37.520;2023-06-10T07:24:05;100559.25;;;19.04;34.35
61205;BME280;47068;55.780;37.520;2023-06-10T07:26:31;100540.81;;;18.73;33.66
61205;BME280;47068;55.780;37.520;2023-06-10T07:28:56;100531.78;;;18.38;34.72
61205;BME280;47068;55.780;37.520;2023-06-10T07:31:23;100550.13;;;18.28;34.59
61205;BME280;47068;55.780;37.520;2023-06-10T07:33:48;100563.41;;;18.08;34.79
61205;BME280;47068;55.780;37.520;2023-06-10T07:36:13;100571.78;;;17.99;34.88
61205;BME280;47068;55.780;37.520;2023-06-10T07:38:39;100553.31;;;22.18;29.52
61205;BME280;47068;55.780;37.520;2023-06-10T07:41:07;100557.09;;;27.50;22.54
61205;BME280;47068;55.780;37.520;2023-06-10T07:43:33;100537.22;;;32.18;17.77
61205;BME280;47068;55.780;37.520;2023-06-10T07:45:58;100554.13;;;36.41;13.77
61205;BME280;47068;55.780;37.520;2023-06-10T07:48:25;100551.06;;;36.95;12.67
61205;BME280;47068;55.780;37.520;2023-06-10T07:50:51;100565.75;;;30.78;16.30
61205;BME280;47068;55.780;37.520;2023-06-10T07:53:17;100551.75;;;30.44;17.26
61205;BME280;47068;55.780;37.520;2023-06-10T07:55:42;100554.13;;;33.03;15.75
61205;BME280;47068;55.780;37.520;2023-06-10T07:58:08;100558.88;;;34.95;13.09
61205;BME280;47068;55.780;37.520;2023-06-10T08:00:33;100555.75;;;35.42;13.69
61205;BME280;47068;55.780;37.520;2023-06-10T08:02:58;100554.75;;;36.38;13.28
61205;BME280;47068;55.780;37.520;2023-06-10T08:05:24;100554.94;;;36.86;12.70
61205;BME280;47068;55.780;37.520;2023-06-10T08:07:49;100553.03;;;32.75;14.69
61205;BME280;47068;55.780;37.520;2023-06-10T08:10:15;100560.78;;;29.42;17.10
61205;BME280;47068;55.780;37.520;2023-06-10T08:12:40;100557.22;;;30.24;16.83
61205;BME280;47068;55.780;37.520;2023-06-10T08:15:06;100562.16;;;31.03;16.20
61205;BME280;47068;55.780;37.520;2023-06-10T08:17:32;100557.28;;;30.54;16.43
61205;BME280;47068;55.780;37.520;2023-06-10T08:19:57;100569.09;;;29.62;16.95
61205;BME280;47068;55.780;37.520;2023-06-10T08:22:23;100564.31;;;27.17;17.11
61205;BME280;47068;55.780;37.520;2023-06-10T08:24:48;100561.16;;;25.68;18.93
61205;BME280;47068;55.780;37.520;2023-06-10T08:27:14;100570.66;;;23.89;20.04
61205;BME280;47068;55.780;37.520;2023-06-10T08:29:40;100573.53;;;22.78;21.51
61205;BME280;47068;55.780;37.520;2023-06-10T08:32:06;100560.81;;;22.48;21.61
61205;BME280;47068;55.780;37.520;2023-06-10T08:34:33;100569.53;;;21.09;23.97
61205;BME280;47068;55.780;37.520;2023-06-10T08:36:59;100578.97;;;19.80;26.04
61205;BME280;47068;55.780;37.520;2023-06-10T08:39:25;100598.41;;;18.66;24.80
61205;BME280;47068;55.780;37.520;2023-06-10T08:44:29;100588.50;;;18.73;27.73
61205;BME280;47068;55.780;37.520;2023-06-10T08:46:59;100590.03;;;19.16;25.79
61205;BME280;47068;55.780;37.520;2023-06-10T08:49:26;100598.56;;;18.85;26.86
61205;BME280;47068;55.780;37.520;2023-06-10T08:52:02;100572.59;;;18.57;27.88
61205;BME280;47068;55.780;37.520;2023-06-10T08:54:31;100600.69;;;18.97;28.58
61205;BME280;47068;55.780;37.520;2023-06-10T08:56:59;100600.41;;;18.42;29.82
61205;BME280;47068;55.780;37.520;2023-06-10T08:59:25;100592.88;;;18.74;30.09
61205;BME280;47068;55.780;37.520;2023-06-10T09:01:51;100606.84;;;18.41;29.81
61205;BME280;47068;55.780;37.520;2023-06-10T09:04:18;100600.41;;;18.21;30.62
61205;BME280;47068;55.780;37.520;2023-06-10T09:06:45;100606.06;;;18.47;31.25
61205;BME280;47068;55.780;37.520;2023-06-10T09:09:12;100603.13;;;18.42;31.08
61205;BME280;47068;55.780;37.520;2023-06-10T09:11:39;100617.25;;;17.28;49.75
61205;BME280;47068;55.780;37.520;2023-06-10T09:14:05;100612.03;;;15.75;54.24
61205;BME280;47068;55.780;37.520;2023-06-10T09:16:31;100621.31;;;14.93;70.75
61205;BME280;47068;55.780;37.520;2023-06-10T09:18:56;100623.25;;;14.10;74.13
61205;BME280;47068;55.780;37.520;2023-06-10T09:21:22;100626.56;;;14.04;71.26
61205;BME280;47068;55.780;37.520;2023-06-10T09:23:49;100620.44;;;14.36;62.19
61205;BME280;47068;55.780;37.520;2023-06-10T09:26:14;100631.69;;;14.88;53.86
61205;BME280;47068;55.780;37.520;2023-06-10T09:28:43;100616.47;;;15.44;51.59
61205;BME280;47068;55.780;37.520;2023-06-10T09:31:09;100610.00;;;16.08;50.30
61205;BME280;47068;55.780;37.520;2023-06-10T09:33:39;100604.63;;;16.54;44.99
61205;BME280;47068;55.780;37.520;2023-06-10T09:36:05;100619.72;;;16.63;42.10
61205;BME280;47068;55.780;37.520;2023-06-10T09:38:32;100598.38;;;16.39;43.76
61205;BME280;47068;55.780;37.520;2023-06-10T09:40:59;100623.56;;;16.83;41.97
61205;BME280;47068;55.780;37.520;2023-06-10T09:43:43;100627.22;;;16.90;39.63
61205;BME280;47068;55.780;37.520;2023-06-10T09:46:16;100627.56;;;16.42;34.05
61205;BME280;47068;55.780;37.520;2023-06-10T09:48:44;100618.94;;;16.32;34.14
61205;BME280;47068;55.780;37.520;2023-06-10T09:51:10;100620.38;;;16.65;41.17
61205;BME280;47068;55.780;37.520;2023-06-10T09:53:36;100626.25;;;17.21;40.11
61205;BME280;47068;55.780;37.520;2023-06-10T09:56:02;100636.19;;;17.35;37.16
61205;BME280;47068;55.780;37.520;2023-06-10T09:58:53;100614.44;;;17.22;34.44
61205;BME280;47068;55.780;37.520;2023-06-10T10:01:19;100620.19;;;17.19;36.74
61205;BME280;47068;55.780;37.520;2023-06-10T10:03:51;100621.06;;;17.34;33.97
61205;BME280;47068;55.780;37.520;2023-06-10T10:06:23;100630.78;;;17.35;34.07
61205;BME280;47068;55.780;37.520;2023-06-10T10:08:52;100620.03;;;17.35;33.45
61205;BME280;47068;55.780;37.520;2023-06-10T10:11:19;100633.28;;;17.51;33.09
61205;BME280;47068;55.780;37.520;2023-06-10T10:13:48;100637.75;;;17.74;32.11
61205;BME280;47068;55.780;37.520;2023-06-10T10:16:21;100622.44;;;17.89;32.26
61205;BME280;47068;55.780;37.520;2023-06-10T10:18:54;100606.94;;;17.91;30.93
61205;BME280;47068;55.780;37.520;2023-06-10T10:21:27;100608.41;;;17.79;30.17
61205;BME280;47068;55.780;37.520;2023-06-10T10:24:07;100628.94;;;17.80;31.11
61205;BME280;47068;55.780;37.520;2023-06-10T10:26:34;100598.16;;;17.67;31.08
61205;BME280;47068;55.780;37.520;2023-06-10T10:29:10;100635.56;;;17.98;30.83
61205;BME280;47068;55.780;37.520;2023-06-10T10:31:37;100637.13;;;18.07;30.58
61205;BME280;47068;55.780;37.520;2023-06-10T10:34:09;100614.66;;;17.64;30.92
61205;BME280;47068;55.780;37.520;2023-06-10T10:36:38;100623.84;;;17.55;30.95
61205;BME280;47068;55.780;37.520;2023-06-10T10:39:04;100640.81;;;17.70;31.84
61205;BME280;47068;55.780;37.520;2023-06-10T10:41:31;100637.47;;;17.83;30.09
61205;BME280;47068;55.780;37.520;2023-06-10T10:43:58;100627.31;;;18.00;30.74
61205;BME280;47068;55.780;37.520;2023-06-10T10:46:25;100620.53;;;18.04;30.64
61205;BME280;47068;55.780;37.520;2023-06-10T10:48:55;100612.91;;;18.07;30.91
61205;BME280;47068;55.780;37.520;2023-06-10T10:51:25;100604.06;;;18.14;31.27
61205;BME280;47068;55.780;37.520;2023-06-10T10:54:10;100637.06;;;18.37;30.31
61205;BME280;47068;55.780;37.520;2023-06-10T10:56:36;100634.22;;;18.24;28.40
61205;BME280;47068;55.780;37.520;2023-06-10T10:59:05;100622.72;;;17.79;29.33
61205;BME280;47068;55.780;37.520;2023-06-10T11:01:43;100626.72;;;17.39;29.34
61205;BME280;47068;55.780;37.520;2023-06-10T11:04:12;100622.59;;;17.43;30.30
61205;BME280;47068;55.780;37.520;2023-06-10T11:06:54;100625.91;;;17.68;29.89
61205;BME280;47068;55.780;37.520;2023-06-10T11:09:29;100604.44;;;17.75;29.58
61205;BME280;47068;55.780;37.520;2023-06-10T11:11:57;100620.97;;;18.07;29.31
61205;BME280;47068;55.780;37.520;2023-06-10T11:14:30;100616.81;;;18.05;28.73
61205;BME280;47068;55.780;37.520;2023-06-10T11:16:59;100614.97;;;18.27;27.55
61205;BME280;47068;55.780;37.520;2023-06-10T11:19:51;100590.50;;;17.86;27.69
61205;BME280;47068;55.780;37.520;2023-06-10T11:22:17;100632.66;;;18.15;28.67
61205;BME280;47068;55.780;37.520;2023-06-10T11:24:50;100627.34;;;18.21;27.89
61205;BME280;47068;55.780;37.520;2023-06-10T11:27:25;100606.50;;;18.08;27.90
61205;BME280;47068;55.780;37.520;2023-06-10T11:32:34;100615.44;;;18.30;28.53
61205;BME280;47068;55.780;37.520;2023-06-10T11:35:02;100614.19;;;18.33;28.67
61205;BME280;47068;55.780;37.520;2023-06-10T11:37:28;100623.00;;;18.41;28.84
61205;BME280;47068;55.780;37.520;2023-06-10T11:39:54;100626.03;;;18.53;28.56
61205;BME280;47068;55.780;37.520;2023-06-10T11:42:21;100606.84;;;18.63;28.79
61205;BME280;47068;55.780;37.520;2023-06-10T11:44:51;100623.91;;;18.91;28.89
61205;BME280;47068;55.780;37.520;2023-06-10T11:47:18;100605.66;;;18.93;28.14
61205;BME280;47068;55.780;37.520;2023-06-10T11:49:45;100626.94;;;19.09;27.11
61205;BME280;47068;55.780;37.520;2023-06-10T11:52:11;100629.78;;;19.01;27.42
61205;BME280;47068;55.780;37.520;2023-06-10T11:54:37;100635.56;;;18.98;27.63
61205;BME280;47068;55.780;37.520;2023-06-10T11:57:03;100632.63;;;18.93;26.85
61205;BME280;47068;55.780;37.520;2023-06-10T11:59:31;100616.97;;;18.82;25.95
61205;BME280;47068;55.780;37.520;2023-06-10T12:01:56;100614.03;;;18.56;26.83
61205;BME280;47068;55.780;37.520;2023-06-10T12:04:22;100607.91;;;18.47;27.78
61205;BME280;47068;55.780;37.520;2023-06-10T12:06:52;100630.69;;;18.59;27.60
61205;BME280;47068;55.780;37.520;2023-06-10T12:09:19;100630.13;;;18.49;27.22
61205;BME280;47068;55.780;37.520;2023-06-10T12:11:45;100626.56;;;18.63;28.11
61205;BME280;47068;55.780;37.520;2023-06-10T12:14:13;100626.72;;;18.83;27.34
61205;BME280;47068;55.780;37.520;2023-06-10T12:16:39;100628.94;;;18.73;26.73
61205;BME280;47068;55.780;37.520;2023-06-10T12:19:05;100633.59;;;18.85;27.01
61205;BME280;47068;55.780;37.520;2023-06-10T12:21:33;100635.28;;;18.65;28.28
61205;BME280;47068;55.780;37.520;2023-06-10T12:24:10;100637.78;;;18.45;28.97
61205;BME280;47068;55.780;37.520;2023-06-10T12:26:41;100633.06;;;18.33;29.47
61205;BME280;47068;55.780;37.520;2023-06-10T12:29:23;100642.09;;;18.04;30.13
61205;BME280;47068;55.780;37.520;2023-06-10T12:32:00;100640.09;;;17.62;31.25
61205;BME280;47068;55.780;37.520;2023-06-10T12:34:44;100633.88;;;17.61;31.70
61205;BME280;47068;55.780;37.520;2023-06-10T12:37:12;100631.81;;;17.63;31.62
61205;BME280;47068;55.780;37.520;2023-06-10T12:39:41;100619.09;;;17.57;31.58
61205;BME280;47068;55.780;37.520;2023-06-10T12:42:12;100629.13;;;17.63;30.88
61205;BME280;47068;55.780;37.520;2023-06-10T12:44:41;100632.00;;;17.47;30.62
61205;BME280;47068;55.780;37.520;2023-06-10T12:47:13;100616.56;;;17.12;31.21
61205;BME280;47068;55.780;37.520;2023-06-10T12:49:39;100623.88;;;17.03;31.22